Martha's Vineyard Express — WDC5128 — position and weather

sailwx.info

Track history (hours):
 
Tides and Currents Weather Stations Pressure Air Temp Water Temp Dewpoint Dewpoint Depression Visibility Wind Speed Wind Dir Waves Ship Positions

Martha's Vineyard Express

Owner: Interlake Leasing IV, Stamford, CT. More information available from US FCC via Universal Licensing System and Coast Guard Vessel Documentation Center.

Last reported at 2018-Jan-23 13:30 UTC. Time now 2018-Jan-23 13:56 UTC.
Position N 40°43' W 074°02'.

; draft 2.1 m.

Type: High speed craft. MMSI: 367036190.

Date/timePositionNaut miles runAvg speedWind from/ knotsBaromVisibWave heightAir tempDewpointWater temp
2018-Jan-23 13:30N 40°43' W 074°02'1223.9
2018-Jan-23 13:00N 40°30' W 074°02'3 5.0
2018-Jan-23 12:29N 40°28' W 074°02'1226.0
2018-Jan-23 12:01N 40°40' W 074°03'1 2.4
2018-Jan-23 11:31N 40°41' W 074°02'1223.5
2018-Jan-23 11:00N 40°30' W 074°02'4 8.3
2018-Jan-23 10:30N 40°25' W 074°02'2 0.4
2018-Jan-23 06:27N 40°25' W 073°60'0 0.0
2018-Jan-23 06:00N 40°25' W 073°60'0 0.0
2018-Jan-23 05:26N 40°25' W 073°60'0 0.0
2018-Jan-23 04:40N 40°25' W 073°60'0 0.0
2018-Jan-23 04:26N 40°25' W 073°60'0 0.0
2018-Jan-23 03:59N 40°25' W 073°60'0 0.0
2018-Jan-22 23:55N 40°25' W 073°60'0 0.2
2018-Jan-22 23:29N 40°25' W 073°60'612.9
2018-Jan-22 23:00N 40°31' W 074°02'1224.7
2018-Jan-22 22:31N 40°43' W 074°02'2 4.6
2018-Jan-22 22:01N 40°41' W 074°03'1224.0
2018-Jan-22 21:29N 40°28' W 074°02'2 4.6
2018-Jan-22 21:00N 40°30' W 074°02'1325.2
2018-Jan-22 20:30N 40°43' W 074°02'1 2.6
2018-Jan-22 20:01N 40°44' W 074°01'2 4.1
2018-Jan-22 19:30N 40°42' W 074°00'0 0.0
2018-Jan-22 19:00N 40°42' W 074°00'2 3.3
2018-Jan-22 18:30N 40°43' W 073°58'4 7.8
2018-Jan-22 18:01N 40°40' W 074°01'1325.0
2018-Jan-22 17:30N 40°27' W 074°01'0 0.2
2018-Jan-22 17:00N 40°27' W 074°01'1325.9
2018-Jan-22 16:31N 40°40' W 074°01'510.2
2018-Jan-22 16:00N 40°44' W 073°58'816.0
2018-Jan-22 15:30N 40°37' W 074°03'1223.7
2018-Jan-22 15:00N 40°25' W 074°02'2 4.4
2018-Jan-22 14:29N 40°27' W 074°02'1326.0
2018-Jan-22 14:00N 40°40' W 074°01'5 9.5
2018-Jan-22 13:30N 40°44' W 073°58'816.5
2018-Jan-22 13:00N 40°37' W 074°03'1222.9
2018-Jan-22 12:30N 40°25' W 074°02'  
2018-Jan-20 01:01N 40°25' W 073°60'0 0.3
2018-Jan-20 01:00N 40°25' W 073°60'0 0.4
2018-Jan-20 00:30N 40°25' W 073°60'0 0.2
2018-Jan-20 00:00N 40°25' W 074°00'1326.1
2018-Jan-19 23:30N 40°38' W 074°03'3 6.0
2018-Jan-19 23:00N 40°40' W 074°01'1325.0
2018-Jan-19 22:30N 40°28' W 074°02'3 6.3
2018-Jan-19 22:00N 40°25' W 074°00'1224.5
2018-Jan-19 21:30N 40°37' W 074°03'611.1
2018-Jan-19 21:00N 40°42' W 074°00'2 5.0
2018-Jan-19 20:30N 40°44' W 073°58'3 5.2
2018-Jan-19 20:00N 40°42' W 074°00'0 0.0
2018-Jan-19 19:30N 40°42' W 074°00'0 0.0
2018-Jan-19 19:00N 40°42' W 074°00'0 0.0
2018-Jan-19 18:30N 40°42' W 074°00'0 0.0
2018-Jan-19 18:00N 40°42' W 074°00'0 0.0
2018-Jan-19 17:30N 40°42' W 074°00'0 0.0
2018-Jan-19 17:00N 40°42' W 074°00'0 0.0
2018-Jan-19 16:31N 40°42' W 074°00'3 5.9
2018-Jan-19 16:01N 40°45' W 073°58'917.6
2018-Jan-19 15:30N 40°36' W 074°02'1122.5
2018-Jan-19 15:01N 40°25' W 074°02'4 8.3
2018-Jan-19 14:30N 40°29' W 074°02'1123.3
2018-Jan-19 14:01N 40°41' W 074°01'2 5.0
2018-Jan-19 13:31N 40°42' W 073°59'815.4
2018-Jan-19 13:01N 40°35' W 074°02'1019.9
2018-Jan-19 12:30N 40°25' W 074°02'2 3.6
2018-Jan-19 12:00N 40°25' W 073°60'0 0.0
2018-Jan-19 11:29N 40°25' W 073°60'0 0.0
2018-Jan-19 11:00N 40°25' W 073°60'0 0.0
2018-Jan-19 10:27N 40°25' W 073°60'0 0.0
2018-Jan-19 10:00N 40°25' W 073°60'0 0.0
2018-Jan-19 09:30N 40°25' W 073°60'0 0.0
2018-Jan-19 09:00N 40°25' W 073°60'0 0.0
2018-Jan-19 08:30N 40°25' W 073°60'0 0.0
2018-Jan-19 08:00N 40°25' W 073°60'0 0.0
2018-Jan-19 07:30N 40°25' W 073°60'0 0.0
2018-Jan-19 07:00N 40°25' W 073°60'0 0.0
2018-Jan-19 06:28N 40°25' W 073°60'0 0.0
2018-Jan-19 06:00N 40°25' W 073°60'0 0.0
2018-Jan-19 05:29N 40°25' W 073°60'0 0.0
2018-Jan-19 05:00N 40°25' W 073°60'0 0.0
2018-Jan-19 04:30N 40°25' W 073°60'0 0.0
2018-Jan-19 03:59N 40°25' W 073°60'0 0.0
2018-Jan-19 03:29N 40°25' W 073°60'0 0.0
2018-Jan-19 03:00N 40°25' W 073°60'0 0.0
2018-Jan-19 02:30N 40°25' W 073°60'0 0.0
2018-Jan-19 01:59N 40°25' W 073°60'0 0.0
2018-Jan-19 01:28N 40°25' W 073°60'0 0.0
2018-Jan-19 00:59N 40°25' W 073°60'0 0.5
2018-Jan-19 00:30N 40°25' W 073°60'0 0.1
2018-Jan-19 00:00N 40°25' W 074°00'1325.7
2018-Jan-18 23:30N 40°37' W 074°03'2 3.8
2018-Jan-18 23:00N 40°39' W 074°02'1224.3
2018-Jan-18 22:30N 40°27' W 074°02'2 4.2
2018-Jan-18 22:00N 40°25' W 074°00'1224.9
2018-Jan-18 21:30N 40°37' W 074°03'611.4
2018-Jan-18 21:01N 40°42' W 074°00'0 0.2
2018-Jan-18 20:30N 40°42' W 074°00'0 0.6
2018-Jan-18 20:00N 40°42' W 074°00'0 0.0
2018-Jan-18 19:30N 40°42' W 074°00'0 0.0
2018-Jan-18 19:00N 40°42' W 074°00'0 0.0
2018-Jan-18 18:30N 40°42' W 074°00'0 0.0
2018-Jan-18 18:00N 40°42' W 074°00'0 0.0
2018-Jan-18 17:30N 40°42' W 074°00'0 0.0
2018-Jan-18 17:00N 40°42' W 074°00'0 0.0
2018-Jan-18 16:30N 40°42' W 074°00'2 4.3
2018-Jan-18 16:01N 40°43' W 073°58'816.5
2018-Jan-18 15:30N 40°36' W 074°02'1121.3
2018-Jan-18 15:01N 40°25' W 074°02'2 4.4
2018-Jan-18 14:27N 40°28' W 074°01'1124.2
2018-Jan-18 14:01N 40°38' W 074°02'612.5
2018-Jan-18 13:31N 40°44' W 073°58'917.3
2018-Jan-18 13:00N 40°36' W 074°02'11 1.0
2018-Jan-18 01:22N 40°25' W 073°60'0 0.1
2018-Jan-18 00:59N 40°25' W 073°60'0 0.2
2018-Jan-18 00:00N 40°25' W 073°60'110.5
2018-Jan-17 23:57N 40°25' W 074°00'  
Track history (hours):
 
Tides and Currents Weather Stations Pressure Air Temp Water Temp Dewpoint Dewpoint Depression Visibility Wind Speed Wind Dir Waves Ship Positions

Martha's Vineyard Express

Owner: Interlake Leasing IV, Stamford, CT. More information available from US FCC via Universal Licensing System and Coast Guard Vessel Documentation Center.

Last reported at 2018-Jan-23 13:30 UTC. Time now 2018-Jan-23 13:56 UTC.
Position N 40°43' W 074°02'.

; draft 2.1 m.

Type: High speed craft. MMSI: 367036190.

Date/timePositionNaut miles runAvg speedWind from/ knotsBaromVisibWave heightAir tempDewpointWater temp
2018-Jan-23 13:30N 40°43' W 074°02'1223.9
2018-Jan-23 13:00N 40°30' W 074°02'3 5.0
2018-Jan-23 12:29N 40°28' W 074°02'1226.0
2018-Jan-23 12:01N 40°40' W 074°03'1 2.4
2018-Jan-23 11:31N 40°41' W 074°02'1223.5
2018-Jan-23 11:00N 40°30' W 074°02'4 8.3
2018-Jan-23 10:30N 40°25' W 074°02'2 0.4
2018-Jan-23 06:27N 40°25' W 073°60'0 0.0
2018-Jan-23 06:00N 40°25' W 073°60'0 0.0
2018-Jan-23 05:26N 40°25' W 073°60'0 0.0
2018-Jan-23 04:40N 40°25' W 073°60'0 0.0
2018-Jan-23 04:26N 40°25' W 073°60'0 0.0
2018-Jan-23 03:59N 40°25' W 073°60'0 0.0
2018-Jan-22 23:55N 40°25' W 073°60'0 0.2
2018-Jan-22 23:29N 40°25' W 073°60'612.9
2018-Jan-22 23:00N 40°31' W 074°02'1224.7
2018-Jan-22 22:31N 40°43' W 074°02'2 4.6
2018-Jan-22 22:01N 40°41' W 074°03'1224.0
2018-Jan-22 21:29N 40°28' W 074°02'2 4.6
2018-Jan-22 21:00N 40°30' W 074°02'1325.2
2018-Jan-22 20:30N 40°43' W 074°02'1 2.6
2018-Jan-22 20:01N 40°44' W 074°01'2 4.1
2018-Jan-22 19:30N 40°42' W 074°00'0 0.0
2018-Jan-22 19:00N 40°42' W 074°00'2 3.3
2018-Jan-22 18:30N 40°43' W 073°58'4 7.8
2018-Jan-22 18:01N 40°40' W 074°01'1325.0
2018-Jan-22 17:30N 40°27' W 074°01'0 0.2
2018-Jan-22 17:00N 40°27' W 074°01'1325.9
2018-Jan-22 16:31N 40°40' W 074°01'510.2
2018-Jan-22 16:00N 40°44' W 073°58'816.0
2018-Jan-22 15:30N 40°37' W 074°03'1223.7
2018-Jan-22 15:00N 40°25' W 074°02'2 4.4
2018-Jan-22 14:29N 40°27' W 074°02'1326.0
2018-Jan-22 14:00N 40°40' W 074°01'5 9.5
2018-Jan-22 13:30N 40°44' W 073°58'816.5
2018-Jan-22 13:00N 40°37' W 074°03'1222.9
2018-Jan-22 12:30N 40°25' W 074°02'  
2018-Jan-20 01:01N 40°25' W 073°60'0 0.3
2018-Jan-20 01:00N 40°25' W 073°60'0 0.4
2018-Jan-20 00:30N 40°25' W 073°60'0 0.2
2018-Jan-20 00:00N 40°25' W 074°00'1326.1
2018-Jan-19 23:30N 40°38' W 074°03'3 6.0
2018-Jan-19 23:00N 40°40' W 074°01'1325.0
2018-Jan-19 22:30N 40°28' W 074°02'3 6.3
2018-Jan-19 22:00N 40°25' W 074°00'1224.5
2018-Jan-19 21:30N 40°37' W 074°03'611.1
2018-Jan-19 21:00N 40°42' W 074°00'2 5.0
2018-Jan-19 20:30N 40°44' W 073°58'3 5.2
2018-Jan-19 20:00N 40°42' W 074°00'0 0.0
2018-Jan-19 19:30N 40°42' W 074°00'0 0.0
2018-Jan-19 19:00N 40°42' W 074°00'0 0.0
2018-Jan-19 18:30N 40°42' W 074°00'0 0.0
2018-Jan-19 18:00N 40°42' W 074°00'0 0.0
2018-Jan-19 17:30N 40°42' W 074°00'0 0.0
2018-Jan-19 17:00N 40°42' W 074°00'0 0.0
2018-Jan-19 16:31N 40°42' W 074°00'3 5.9
2018-Jan-19 16:01N 40°45' W 073°58'917.6
2018-Jan-19 15:30N 40°36' W 074°02'1122.5
2018-Jan-19 15:01N 40°25' W 074°02'4 8.3
2018-Jan-19 14:30N 40°29' W 074°02'1123.3
2018-Jan-19 14:01N 40°41' W 074°01'2 5.0
2018-Jan-19 13:31N 40°42' W 073°59'815.4
2018-Jan-19 13:01N 40°35' W 074°02'1019.9
2018-Jan-19 12:30N 40°25' W 074°02'2 3.6
2018-Jan-19 12:00N 40°25' W 073°60'0 0.0
2018-Jan-19 11:29N 40°25' W 073°60'0 0.0
2018-Jan-19 11:00N 40°25' W 073°60'0 0.0
2018-Jan-19 10:27N 40°25' W 073°60'0 0.0
2018-Jan-19 10:00N 40°25' W 073°60'0 0.0
2018-Jan-19 09:30N 40°25' W 073°60'0 0.0
2018-Jan-19 09:00N 40°25' W 073°60'0 0.0
2018-Jan-19 08:30N 40°25' W 073°60'0 0.0
2018-Jan-19 08:00N 40°25' W 073°60'0 0.0
2018-Jan-19 07:30N 40°25' W 073°60'0 0.0
2018-Jan-19 07:00N 40°25' W 073°60'0 0.0
2018-Jan-19 06:28N 40°25' W 073°60'0 0.0
2018-Jan-19 06:00N 40°25' W 073°60'0 0.0
2018-Jan-19 05:29N 40°25' W 073°60'0 0.0
2018-Jan-19 05:00N 40°25' W 073°60'0 0.0
2018-Jan-19 04:30N 40°25' W 073°60'0 0.0
2018-Jan-19 03:59N 40°25' W 073°60'0 0.0
2018-Jan-19 03:29N 40°25' W 073°60'0 0.0
2018-Jan-19 03:00N 40°25' W 073°60'0 0.0
2018-Jan-19 02:30N 40°25' W 073°60'0 0.0
2018-Jan-19 01:59N 40°25' W 073°60'0 0.0
2018-Jan-19 01:28N 40°25' W 073°60'0 0.0
2018-Jan-19 00:59N 40°25' W 073°60'0 0.5
2018-Jan-19 00:30N 40°25' W 073°60'0 0.1
2018-Jan-19 00:00N 40°25' W 074°00'1325.7
2018-Jan-18 23:30N 40°37' W 074°03'2 3.8
2018-Jan-18 23:00N 40°39' W 074°02'1224.3
2018-Jan-18 22:30N 40°27' W 074°02'2 4.2
2018-Jan-18 22:00N 40°25' W 074°00'1224.9
2018-Jan-18 21:30N 40°37' W 074°03'611.4
2018-Jan-18 21:01N 40°42' W 074°00'0 0.2
2018-Jan-18 20:30N 40°42' W 074°00'0 0.6
2018-Jan-18 20:00N 40°42' W 074°00'0 0.0
2018-Jan-18 19:30N 40°42' W 074°00'0 0.0
2018-Jan-18 19:00N 40°42' W 074°00'0 0.0
2018-Jan-18 18:30N 40°42' W 074°00'0 0.0
2018-Jan-18 18:00N 40°42' W 074°00'0 0.0
2018-Jan-18 17:30N 40°42' W 074°00'0 0.0
2018-Jan-18 17:00N 40°42' W 074°00'0 0.0
2018-Jan-18 16:30N 40°42' W 074°00'2 4.3
2018-Jan-18 16:01N 40°43' W 073°58'816.5
2018-Jan-18 15:30N 40°36' W 074°02'1121.3
2018-Jan-18 15:01N 40°25' W 074°02'2 4.4
2018-Jan-18 14:27N 40°28' W 074°01'1124.2
2018-Jan-18 14:01N 40°38' W 074°02'612.5
2018-Jan-18 13:31N 40°44' W 073°58'917.3
2018-Jan-18 13:00N 40°36' W 074°02'11 1.0
2018-Jan-18 01:22N 40°25' W 073°60'0 0.1
2018-Jan-18 00:59N 40°25' W 073°60'0 0.2
2018-Jan-18 00:00N 40°25' W 073°60'110.5
2018-Jan-17 23:57N 40°25' W 074°00'  

Dump ship's entire track history